Terminal Aerodrome Forecast
Issued by NWS

Home | Current Version | Previous Version | Text Only | Print | Product List | Glossary On
Versions: 1 2 3 4 5 6 7 8 9 10 11 12 13 14 15 16 17 18 19 20 21 22 23 24 25 26 27
000
FTUS44 KMAF 191100
TAFCNM
TAF
KCNM 191120Z 1912/2012 12005KT P6SM OVC007
      TEMPO 1912/1914 3SM TSRA BR OVC006CB
     FM191400 14007KT P6SM OVC020
      TEMPO 1914/1918 3SM TSRA BR OVC010CB
     FM191800 13012KT P6SM OVC030
      TEMPO 1918/1922 3SM TSRA BR OVC020CB
     FM200600 10005KT 5SM BR OVC030
     FM201000 36005KT 2SM BR OVC009=

USA.gov is the U.S. government's official web portal to all federal, state and local government web resources and services.